createdAt,value
2022-12-06T00:01:33.590Z,80.05
2022-12-06T00:04:05.213Z,80.78
2022-12-06T00:06:37.372Z,80.36
2022-12-06T00:09:05.382Z,81.28
2022-12-06T00:11:35.316Z,81.16
2022-12-06T00:14:06.513Z,80.98
2022-12-06T00:16:35.886Z,80.70
2022-12-06T00:19:05.054Z,80.59
2022-12-06T00:21:33.978Z,79.61
2022-12-06T00:24:11.005Z,79.95
2022-12-06T00:26:41.631Z,79.86
2022-12-06T00:29:23.632Z,79.88
2022-12-06T00:31:51.671Z,79.48
2022-12-06T00:34:19.567Z,79.57
2022-12-06T00:36:48.061Z,78.93
2022-12-06T00:39:17.638Z,78.57
2022-12-06T00:41:45.654Z,78.43
2022-12-06T00:44:13.694Z,78.93
2022-12-06T00:46:41.911Z,78.83
2022-12-06T00:49:10.240Z,79.08
2022-12-06T00:51:39.187Z,78.83
2022-12-06T00:54:07.632Z,78.79
2022-12-06T00:56:37.038Z,78.64
2022-12-06T00:59:06.167Z,79.20
2022-12-06T01:01:36.450Z,79.30
2022-12-06T01:04:07.206Z,78.99
2022-12-06T01:06:37.491Z,78.89
2022-12-06T01:09:08.385Z,79.35
2022-12-06T01:11:36.610Z,79.55
2022-12-06T01:14:04.719Z,79.75
2022-12-06T01:16:33.640Z,80.89
2022-12-06T01:19:04.383Z,80.80
2022-12-06T01:21:32.495Z,81.66
2022-12-06T01:24:00.377Z,82.21
2022-12-06T01:26:31.812Z,82.40
2022-12-06T01:29:00.371Z,81.58
2022-12-06T01:31:37.104Z,82.37
2022-12-06T01:34:07.787Z,82.15
2022-12-06T01:36:35.913Z,82.06
2022-12-06T01:39:07.182Z,81.38
2022-12-06T01:41:35.325Z,81.58
2022-12-06T01:44:04.620Z,82.29
2022-12-06T01:46:38.128Z,82.39
2022-12-06T01:49:29.546Z,83.96
2022-12-06T01:52:02.773Z,84.88
2022-12-06T01:54:30.925Z,85.18
2022-12-06T01:57:02.133Z,84.97
2022-12-06T01:59:30.759Z,85.82
2022-12-06T02:01:59.363Z,84.39
2022-12-06T02:04:31.294Z,83.54
2022-12-06T02:07:01.248Z,84.24
2022-12-06T02:09:30.225Z,83.12
2022-12-06T02:11:58.307Z,82.63
2022-12-06T02:14:35.633Z,82.69
2022-12-06T02:17:15.652Z,82.67
2022-12-06T02:20:05.658Z,82.14
2022-12-06T02:23:11.128Z,82.21
2022-12-06T02:25:57.272Z,81.69
2022-12-06T02:28:43.072Z,81.81
2022-12-06T02:31:21.818Z,82.12
2022-12-06T02:33:54.029Z,82.13
2022-12-06T02:36:42.265Z,81.79
2022-12-06T02:39:16.679Z,81.58
2022-12-06T02:42:02.778Z,80.57
2022-12-06T02:44:36.734Z,81.74
2022-12-06T02:47:08.201Z,81.62
2022-12-06T02:49:39.607Z,81.08
2022-12-06T02:52:07.600Z,81.22
2022-12-06T02:54:36.104Z,80.57
2022-12-06T02:57:04.076Z,79.86
2022-12-06T03:01:13.388Z,80.28
2022-12-06T03:04:04.664Z,79.44
2022-12-06T03:06:59.748Z,80.09
2022-12-06T03:09:50.173Z,80.02
2022-12-06T03:12:39.447Z,80.24
2022-12-06T03:15:34.463Z,81.09
2022-12-06T03:18:12.249Z,80.69
2022-12-06T03:20:47.671Z,80.03
2022-12-06T03:23:20.196Z,80.47
2022-12-06T03:25:49.979Z,80.25
2022-12-06T03:28:20.876Z,80.60
2022-12-06T03:30:52.304Z,80.62
2022-12-06T03:33:23.750Z,80.59
2022-12-06T03:35:53.356Z,80.05
2022-12-06T03:39:02.497Z,79.40
2022-12-06T03:41:36.658Z,79.21
2022-12-06T03:44:05.201Z,79.04
2022-12-06T03:46:44.738Z,78.75
2022-12-06T03:49:20.046Z,79.59
2022-12-06T03:51:48.681Z,79.69
2022-12-06T03:54:16.714Z,80.09
2022-12-06T03:56:44.772Z,79.94
2022-12-06T03:59:12.741Z,80.39
2022-12-06T04:01:40.736Z,80.56
2022-12-06T04:04:10.665Z,80.13
2022-12-06T04:06:38.647Z,80.67
2022-12-06T04:09:24.959Z,80.63
2022-12-06T04:11:52.980Z,79.99
2022-12-06T04:14:21.096Z,80.39
2022-12-06T04:17:07.667Z,80.30
2022-12-06T04:19:35.540Z,80.65
2022-12-06T04:22:22.138Z,81.14
2022-12-06T04:24:50.081Z,81.35
2022-12-06T04:27:36.236Z,80.90
2022-12-06T04:30:22.931Z,80.62
2022-12-06T04:33:09.786Z,80.59
2022-12-06T04:35:56.165Z,80.71
2022-12-06T04:38:42.225Z,80.47
2022-12-06T04:41:11.168Z,81.25
2022-12-06T04:43:42.335Z,80.97
2022-12-06T04:46:18.424Z,80.54
2022-12-06T04:48:46.780Z,80.12
2022-12-06T04:51:15.117Z,79.93
2022-12-06T04:53:43.369Z,80.00
2022-12-06T04:56:11.579Z,80.38
2022-12-06T04:58:39.553Z,80.76
2022-12-06T05:01:07.819Z,80.50
2022-12-06T05:03:40.868Z,80.42
2022-12-06T05:06:12.113Z,79.66
2022-12-06T05:08:40.062Z,79.77
2022-12-06T05:11:08.096Z,79.61
2022-12-06T05:13:36.649Z,79.67
2022-12-06T05:16:06.304Z,79.40
2022-12-06T05:18:34.976Z,79.38
2022-12-06T05:21:14.013Z,80.03
2022-12-06T05:23:42.583Z,79.99
2022-12-06T05:26:19.616Z,79.99
2022-12-06T05:28:48.292Z,79.93
2022-12-06T05:31:17.113Z,79.83
2022-12-06T05:33:45.988Z,80.72
2022-12-06T05:36:17.547Z,80.42
2022-12-06T05:38:51.104Z,80.19
2022-12-06T05:41:21.504Z,79.97
2022-12-06T05:43:49.675Z,79.98
2022-12-06T05:46:18.605Z,80.13
2022-12-06T05:48:46.778Z,80.16
2022-12-06T05:51:14.842Z,80.11
2022-12-06T05:53:42.806Z,79.94
2022-12-06T05:56:13.059Z,79.75
2022-12-06T05:58:41.019Z,80.40
2022-12-06T06:01:09.860Z,80.74
2022-12-06T06:03:43.825Z,80.37
2022-12-06T06:06:13.631Z,80.57
2022-12-06T06:08:41.660Z,81.57
2022-12-06T06:11:09.779Z,82.34
2022-12-06T06:13:37.887Z,82.08
2022-12-06T06:16:06.604Z,82.08
2022-12-06T06:18:34.567Z,81.50
2022-12-06T06:21:02.715Z,81.04
2022-12-06T06:23:31.088Z,80.59
2022-12-06T06:25:59.040Z,80.25
2022-12-06T06:28:26.996Z,80.91
2022-12-06T06:30:55.056Z,80.84
2022-12-06T06:33:22.999Z,81.07
2022-12-06T06:35:50.892Z,81.58
2022-12-06T06:38:18.770Z,81.33
2022-12-06T06:40:47.456Z,81.18
2022-12-06T06:43:18.855Z,81.16
2022-12-06T06:45:56.024Z,80.03
2022-12-06T06:48:25.471Z,80.10
2022-12-06T06:50:57.216Z,79.81
2022-12-06T06:53:28.036Z,79.15
2022-12-06T06:55:56.067Z,78.85
2022-12-06T06:58:24.841Z,78.55
2022-12-06T07:00:58.375Z,78.47
2022-12-06T07:03:28.344Z,78.11
2022-12-06T07:06:04.903Z,77.93
2022-12-06T07:08:33.183Z,77.38
2022-12-06T07:11:01.511Z,77.53
2022-12-06T07:13:30.794Z,77.78
2022-12-06T07:15:59.284Z,79.08
2022-12-06T07:18:27.181Z,79.81
2022-12-06T07:21:04.212Z,79.95
2022-12-06T07:23:34.017Z,80.45
2022-12-06T07:26:07.149Z,79.99
2022-12-06T07:28:40.057Z,79.01
2022-12-06T07:31:14.416Z,79.58
2022-12-06T07:33:43.672Z,79.22
2022-12-06T07:36:13.802Z,80.22
2022-12-06T07:38:43.649Z,78.89
2022-12-06T07:41:32.204Z,79.46
2022-12-06T07:44:20.256Z,79.29
2022-12-06T07:46:48.845Z,80.01
2022-12-06T07:49:17.849Z,79.41
2022-12-06T07:51:46.619Z,79.87
2022-12-06T07:54:16.523Z,79.50
2022-12-06T07:56:47.846Z,79.95
2022-12-06T07:59:15.825Z,80.24
2022-12-06T08:01:44.053Z,79.90
2022-12-06T08:04:12.112Z,81.22
2022-12-06T08:06:40.700Z,81.14
2022-12-06T08:09:09.367Z,80.93
2022-12-06T08:11:37.314Z,81.17
2022-12-06T08:14:05.745Z,81.09
2022-12-06T08:16:33.958Z,79.82
2022-12-06T08:19:01.905Z,79.48
2022-12-06T08:21:30.468Z,79.63
2022-12-06T08:23:58.502Z,78.90
2022-12-06T08:26:26.494Z,77.81
2022-12-06T08:28:54.507Z,77.86
2022-12-06T08:31:24.698Z,76.73
2022-12-06T08:33:52.746Z,75.46
2022-12-06T08:36:22.481Z,74.24
2022-12-06T08:38:52.062Z,73.13
2022-12-06T08:41:39.807Z,73.14
2022-12-06T08:44:10.106Z,74.06
2022-12-06T08:46:38.302Z,74.24
2022-12-06T08:49:06.367Z,74.41
2022-12-06T08:51:36.197Z,74.18
2022-12-06T08:54:05.472Z,74.81
2022-12-06T08:56:33.604Z,74.74
2022-12-06T08:59:01.656Z,75.57
2022-12-06T09:01:37.386Z,76.78
2022-12-06T09:04:08.680Z,77.16
2022-12-06T09:06:39.233Z,76.24
2022-12-06T09:09:08.565Z,74.95
2022-12-06T09:11:37.194Z,75.81
2022-12-06T09:14:05.845Z,75.00
2022-12-06T09:16:33.883Z,74.88
2022-12-06T09:19:02.062Z,74.01
2022-12-06T09:21:30.864Z,74.52
2022-12-06T09:23:59.546Z,74.20
2022-12-06T09:26:29.169Z,74.74
2022-12-06T09:28:58.380Z,74.68
2022-12-06T09:31:26.454Z,73.58
2022-12-06T09:33:54.672Z,75.34
2022-12-06T09:36:27.811Z,73.99
2022-12-06T09:39:00.860Z,73.89
2022-12-06T09:41:58.937Z,73.85
2022-12-06T09:44:46.059Z,74.67
2022-12-06T09:47:22.641Z,74.04
2022-12-06T09:50:14.837Z,74.43
2022-12-06T09:52:57.735Z,73.67
2022-12-06T09:55:40.857Z,72.40
2022-12-06T09:58:17.583Z,74.54
2022-12-06T10:00:57.236Z,74.21
2022-12-06T10:03:28.136Z,74.50
2022-12-06T10:06:03.106Z,74.50
2022-12-06T10:08:49.625Z,73.19
2022-12-06T10:11:35.977Z,72.53
2022-12-06T10:14:34.964Z,73.92
2022-12-06T10:17:35.816Z,73.44
2022-12-06T10:20:24.810Z,71.44
2022-12-06T10:23:22.043Z,65.55
2022-12-06T10:26:05.584Z,58.38
2022-12-06T10:28:39.390Z,56.05
2022-12-06T10:31:31.074Z,52.73
2022-12-06T10:34:27.821Z,51.29
2022-12-06T10:37:09.507Z,47.49
2022-12-06T10:39:54.596Z,44.54
2022-12-06T10:42:43.555Z,43.20
2022-12-06T10:45:37.354Z,41.36
2022-12-06T10:48:15.163Z,39.65
2022-12-06T10:50:46.092Z,37.90
2022-12-06T10:53:18.960Z,38.14
2022-12-06T10:55:54.994Z,37.58
2022-12-06T10:58:30.989Z,42.08
2022-12-06T11:01:03.219Z,46.83
2022-12-06T11:03:50.343Z,47.99
2022-12-06T11:07:02.673Z,49.92
2022-12-06T11:09:49.400Z,47.28
2022-12-06T11:12:31.969Z,46.74
2022-12-06T11:15:24.556Z,46.94
2022-12-06T11:18:10.359Z,50.51
2022-12-06T11:20:52.039Z,52.80
2022-12-06T11:23:29.561Z,51.59
2022-12-06T11:26:03.639Z,48.62
2022-12-06T11:28:38.025Z,49.43
2022-12-06T11:31:23.729Z,52.48
2022-12-06T11:33:51.925Z,53.65
2022-12-06T11:36:21.927Z,56.48
2022-12-06T11:38:50.107Z,60.79
2022-12-06T11:41:28.045Z,63.74
2022-12-06T11:43:56.619Z,64.56
2022-12-06T11:46:25.549Z,67.29
2022-12-06T11:48:54.525Z,68.78
2022-12-06T11:51:24.504Z,69.69
2022-12-06T11:53:58.514Z,71.34
2022-12-06T11:56:30.190Z,73.32
2022-12-06T11:59:27.375Z,72.88
2022-12-06T12:02:01.559Z,73.40
2022-12-06T12:04:41.418Z,73.90
2022-12-06T12:07:20.368Z,74.08
2022-12-06T12:09:54.287Z,73.72
2022-12-06T12:12:56.906Z,73.54
2022-12-06T12:15:27.831Z,72.99
2022-12-06T12:17:58.763Z,71.57
2022-12-06T12:20:30.471Z,71.87
2022-12-06T12:23:13.633Z,72.20
2022-12-06T12:25:43.929Z,71.86
2022-12-06T12:28:27.094Z,71.51
2022-12-06T12:31:00.624Z,71.04
2022-12-06T12:33:29.319Z,71.21
2022-12-06T12:36:16.064Z,71.41
2022-12-06T12:38:54.396Z,71.54
2022-12-06T12:41:41.142Z,72.01
2022-12-06T12:44:38.154Z,71.19
2022-12-06T12:47:21.264Z,71.74
2022-12-06T12:50:04.064Z,72.32
2022-12-06T12:52:38.351Z,71.77
2022-12-06T12:55:16.084Z,71.53
2022-12-06T12:57:46.721Z,71.37
2022-12-06T13:00:17.066Z,71.66
2022-12-06T13:02:51.386Z,72.39
2022-12-06T13:05:43.424Z,72.00
2022-12-06T13:08:14.008Z,72.42
2022-12-06T13:10:44.734Z,72.83
2022-12-06T13:13:17.473Z,72.71
2022-12-06T13:15:52.624Z,72.73
2022-12-06T13:18:25.339Z,74.17
2022-12-06T13:20:56.916Z,74.54
2022-12-06T13:23:29.647Z,74.20
2022-12-06T13:26:26.957Z,74.67
2022-12-06T13:29:00.105Z,75.48
2022-12-06T13:31:33.636Z,75.49
2022-12-06T13:34:14.175Z,76.44
2022-12-06T13:36:42.508Z,75.57
2022-12-06T13:39:31.711Z,76.54
2022-12-06T13:42:20.443Z,76.96
2022-12-06T13:44:48.378Z,76.52
2022-12-06T13:47:38.485Z,76.15
2022-12-06T13:50:18.110Z,76.12
2022-12-06T13:52:46.120Z,76.43
2022-12-06T13:55:26.305Z,76.53
2022-12-06T13:58:17.423Z,76.90
2022-12-06T14:00:49.726Z,76.83
2022-12-06T14:03:17.731Z,76.77
2022-12-06T14:06:15.794Z,76.50
2022-12-06T14:08:53.688Z,76.34
2022-12-06T14:11:27.528Z,76.11
2022-12-06T14:13:55.542Z,76.05
2022-12-06T14:17:02.459Z,76.48
2022-12-06T14:19:41.566Z,76.10
2022-12-06T14:22:34.474Z,77.11
2022-12-06T14:25:06.031Z,78.07
2022-12-06T14:27:42.129Z,77.72
2022-12-06T14:30:25.461Z,77.58
2022-12-06T14:32:56.561Z,78.06
2022-12-06T14:35:27.990Z,78.75
2022-12-06T14:38:23.551Z,78.42
2022-12-06T14:41:11.350Z,77.94
2022-12-06T14:43:40.959Z,78.36
2022-12-06T14:46:12.964Z,79.07
2022-12-06T14:49:00.212Z,79.31
2022-12-06T14:51:38.162Z,79.50
2022-12-06T14:54:35.499Z,79.29
2022-12-06T14:57:04.517Z,80.29
2022-12-06T15:00:12.935Z,79.65
2022-12-06T15:02:27.169Z,80.90
2022-12-06T15:04:55.781Z,80.61
2022-12-06T15:07:43.608Z,80.97
2022-12-06T15:10:20.641Z,80.53
2022-12-06T15:12:57.158Z,81.51
2022-12-06T15:15:46.668Z,81.22
2022-12-06T15:18:24.026Z,81.32
2022-12-06T15:20:55.955Z,81.45
2022-12-06T15:23:39.421Z,81.56
2022-12-06T15:26:13.051Z,81.41
2022-12-06T15:28:41.942Z,81.16
2022-12-06T15:31:37.556Z,81.44
2022-12-06T15:34:25.099Z,80.76
2022-12-06T15:37:15.262Z,81.21
2022-12-06T15:39:43.658Z,81.48
2022-12-06T15:42:20.898Z,82.19
2022-12-06T15:44:50.820Z,82.84
2022-12-06T15:47:19.933Z,82.21
2022-12-06T15:49:54.040Z,81.51
2022-12-06T15:52:26.272Z,81.68
2022-12-06T15:54:54.957Z,81.34
2022-12-06T15:57:22.997Z,81.64
2022-12-06T15:59:51.186Z,80.95
2022-12-06T16:02:19.649Z,81.04
2022-12-06T16:04:52.169Z,81.26
2022-12-06T16:07:20.459Z,81.03
2022-12-06T16:09:48.794Z,81.30
2022-12-06T16:12:18.186Z,82.23
2022-12-06T16:14:46.157Z,81.28
2022-12-06T16:17:14.139Z,82.47
2022-12-06T16:20:02.488Z,83.38
2022-12-06T16:22:49.225Z,82.78
2022-12-06T16:25:17.265Z,82.85
2022-12-06T16:27:45.061Z,82.56
2022-12-06T16:30:13.738Z,83.14
2022-12-06T16:32:42.202Z,83.48
2022-12-06T16:35:10.350Z,83.95
2022-12-06T16:37:38.840Z,84.89
2022-12-06T16:40:08.488Z,85.03
2022-12-06T16:42:37.155Z,84.79
2022-12-06T16:45:05.917Z,85.09
2022-12-06T16:47:34.406Z,85.16
2022-12-06T16:50:03.005Z,85.65
2022-12-06T16:52:31.737Z,85.50
2022-12-06T16:55:00.576Z,85.50
2022-12-06T16:57:28.819Z,86.00
2022-12-06T16:59:56.856Z,85.92
2022-12-06T17:02:31.322Z,85.97
2022-12-06T17:05:01.570Z,85.74
2022-12-06T17:07:30.470Z,85.62
2022-12-06T17:09:58.996Z,86.00
2022-12-06T17:12:27.399Z,86.20
2022-12-06T17:14:55.491Z,85.91
2022-12-06T17:17:26.200Z,85.73
2022-12-06T17:19:56.512Z,85.90
2022-12-06T17:22:25.042Z,86.49
2022-12-06T17:24:53.232Z,86.35
2022-12-06T17:27:21.125Z,86.45
2022-12-06T17:29:49.538Z,86.58
2022-12-06T17:32:18.613Z,86.73
2022-12-06T17:34:47.888Z,86.54
2022-12-06T17:37:16.346Z,86.69
2022-12-06T17:39:45.008Z,86.26
2022-12-06T17:42:31.821Z,86.39
2022-12-06T17:45:00.218Z,86.16
2022-12-06T17:47:28.897Z,86.43
2022-12-06T17:49:57.420Z,86.81
2022-12-06T17:52:26.156Z,86.53
2022-12-06T17:54:54.507Z,86.02
2022-12-06T17:57:23.183Z,86.06
2022-12-06T17:59:51.655Z,86.45
2022-12-06T18:02:24.356Z,86.36
2022-12-06T18:04:54.429Z,86.40
2022-12-06T18:07:23.126Z,86.02
2022-12-06T18:09:51.663Z,86.13
2022-12-06T18:12:20.233Z,86.34
2022-12-06T18:14:48.813Z,86.46
2022-12-06T18:17:17.507Z,86.35
2022-12-06T18:19:47.451Z,86.39
2022-12-06T18:22:16.624Z,86.41
2022-12-06T18:24:45.142Z,86.23
2022-12-06T18:27:13.830Z,86.39
2022-12-06T18:29:42.652Z,85.83
2022-12-06T18:32:11.321Z,85.94
2022-12-06T18:34:39.801Z,86.41
2022-12-06T18:37:08.583Z,86.46
2022-12-06T18:39:37.161Z,86.77
2022-12-06T18:42:05.720Z,86.91
2022-12-06T18:44:34.265Z,86.63
2022-12-06T18:47:02.782Z,86.46
2022-12-06T18:49:31.239Z,86.95
2022-12-06T18:51:59.354Z,86.42
2022-12-06T18:54:30.519Z,86.62
2022-12-06T18:56:59.772Z,86.37
2022-12-06T18:59:29.165Z,86.10
2022-12-06T19:01:57.787Z,86.48
2022-12-06T19:04:26.541Z,86.00
2022-12-06T19:06:55.134Z,86.53
2022-12-06T19:09:23.608Z,86.82
2022-12-06T19:11:52.369Z,87.10
2022-12-06T19:14:20.623Z,86.69
2022-12-06T19:16:50.702Z,86.71
2022-12-06T19:19:22.649Z,86.75
2022-12-06T19:21:53.408Z,86.42
2022-12-06T19:24:25.109Z,86.28
2022-12-06T19:26:58.343Z,86.51
2022-12-06T19:29:29.387Z,86.25
2022-12-06T19:31:58.100Z,85.60
2022-12-06T19:34:29.896Z,85.39
2022-12-06T19:36:58.356Z,86.27
2022-12-06T19:39:29.897Z,85.92
2022-12-06T19:42:17.152Z,85.97
2022-12-06T19:44:45.574Z,86.23
2022-12-06T19:47:14.601Z,86.15
2022-12-06T19:49:42.803Z,85.90
2022-12-06T19:52:11.176Z,86.46
2022-12-06T19:54:40.566Z,86.42
2022-12-06T19:57:09.146Z,86.73
2022-12-06T19:59:39.755Z,86.91
2022-12-06T20:02:12.914Z,86.77
2022-12-06T20:04:42.411Z,86.83
2022-12-06T20:07:11.207Z,86.82
2022-12-06T20:09:39.943Z,87.38
2022-12-06T20:12:08.591Z,87.30
2022-12-06T20:14:45.712Z,87.20
2022-12-06T20:17:17.205Z,87.58
2022-12-06T20:19:46.707Z,87.37
2022-12-06T20:22:16.707Z,87.36
2022-12-06T20:24:45.448Z,87.38
2022-12-06T20:27:14.359Z,87.24
2022-12-06T20:29:42.876Z,87.17
2022-12-06T20:32:11.819Z,87.29
2022-12-06T20:34:40.111Z,86.92
2022-12-06T20:37:08.112Z,87.07
2022-12-06T20:39:36.667Z,86.60
2022-12-06T20:42:07.365Z,86.86
2022-12-06T20:44:37.322Z,86.69
2022-12-06T20:47:05.742Z,87.14
2022-12-06T20:49:34.192Z,87.44
2022-12-06T20:52:03.992Z,87.09
2022-12-06T20:54:32.613Z,87.55
2022-12-06T20:57:00.809Z,87.79
2022-12-06T20:59:29.821Z,88.11
2022-12-06T21:01:58.126Z,88.96
2022-12-06T21:04:30.105Z,89.64
2022-12-06T21:06:58.520Z,90.00
2022-12-06T21:09:27.054Z,89.52
2022-12-06T21:11:55.442Z,88.98
2022-12-06T21:14:23.672Z,88.13
2022-12-06T21:16:52.289Z,88.35
2022-12-06T21:19:20.672Z,88.87
2022-12-06T21:21:51.831Z,88.26
2022-12-06T21:24:22.152Z,87.69
2022-12-06T21:26:50.481Z,87.68
2022-12-06T21:29:29.735Z,87.54
2022-12-06T21:32:01.821Z,87.61
2022-12-06T21:34:30.307Z,86.03
2022-12-06T21:36:58.556Z,86.13
2022-12-06T21:39:26.808Z,86.63
2022-12-06T21:41:55.193Z,86.74
2022-12-06T21:44:24.264Z,86.46
2022-12-06T21:46:53.792Z,86.34
2022-12-06T21:49:21.874Z,86.10
2022-12-06T21:51:52.680Z,86.37
2022-12-06T21:54:23.121Z,86.53
2022-12-06T21:56:51.155Z,86.70
2022-12-06T21:59:19.486Z,86.67
2022-12-06T22:01:50.515Z,86.73
2022-12-06T22:04:18.608Z,86.87
2022-12-06T22:06:46.672Z,86.28
2022-12-06T22:09:14.634Z,86.71
2022-12-06T22:11:42.801Z,86.21
2022-12-06T22:14:11.612Z,86.52
2022-12-06T22:16:40.014Z,85.61
2022-12-06T22:19:07.883Z,85.54
2022-12-06T22:21:35.904Z,85.52
2022-12-06T22:24:03.929Z,85.63
2022-12-06T22:26:32.303Z,85.18
2022-12-06T22:29:01.414Z,84.99
2022-12-06T22:31:30.465Z,84.91
2022-12-06T22:33:59.039Z,84.61
2022-12-06T22:36:29.665Z,85.29
2022-12-06T22:39:00.163Z,85.37
2022-12-06T22:41:29.158Z,85.30
2022-12-06T22:43:59.691Z,85.55
2022-12-06T22:46:29.182Z,85.26
2022-12-06T22:48:58.200Z,85.00
2022-12-06T22:51:29.325Z,84.30
2022-12-06T22:53:59.660Z,84.54
2022-12-06T22:56:29.471Z,83.92
2022-12-06T22:58:59.207Z,84.98
2022-12-06T23:01:30.222Z,84.50
2022-12-06T23:04:00.576Z,84.96
2022-12-06T23:06:29.184Z,84.50
2022-12-06T23:08:57.500Z,84.63
2022-12-06T23:11:30.400Z,84.13
2022-12-06T23:13:59.193Z,84.07
2022-12-06T23:16:29.443Z,83.97
2022-12-06T23:19:03.354Z,83.41
2022-12-06T23:21:33.367Z,83.09
2022-12-06T23:24:04.653Z,82.60
2022-12-06T23:26:38.268Z,82.51
2022-12-06T23:29:06.452Z,82.77
2022-12-06T23:31:37.687Z,81.95
2022-12-06T23:34:11.238Z,82.73
2022-12-06T23:36:39.194Z,82.25
2022-12-06T23:39:07.277Z,81.97
2022-12-06T23:41:36.202Z,82.12
2022-12-06T23:44:06.397Z,81.56
2022-12-06T23:46:36.799Z,81.68
2022-12-06T23:49:06.835Z,80.70
2022-12-06T23:51:37.334Z,81.13
2022-12-06T23:54:07.271Z,81.26
2022-12-06T23:56:38.081Z,81.06
2022-12-06T23:59:07.322Z,81.07
